createdAt,value
2022-10-13T00:03:02.040Z,11.52
2022-10-13T00:07:51.427Z,11.52
2022-10-13T00:12:43.482Z,11.51
2022-10-13T00:17:34.232Z,11.52
2022-10-13T00:22:23.839Z,11.52
2022-10-13T00:27:13.702Z,11.52
2022-10-13T00:32:07.922Z,11.53
2022-10-13T00:36:57.317Z,11.55
2022-10-13T00:41:47.521Z,11.55
2022-10-13T00:46:38.200Z,11.57
2022-10-13T00:51:32.061Z,11.61
2022-10-13T00:56:22.552Z,11.64
2022-10-13T01:01:12.266Z,11.67
2022-10-13T01:06:04.015Z,11.70
2022-10-13T01:10:59.899Z,11.75
2022-10-13T01:15:57.091Z,11.76
2022-10-13T01:21:08.057Z,11.80
2022-10-13T01:26:11.643Z,11.84
2022-10-13T01:31:13.015Z,11.87
2022-10-13T01:36:09.704Z,11.91
2022-10-13T01:41:04.903Z,11.93
2022-10-13T01:45:59.900Z,11.93
2022-10-13T01:50:52.827Z,11.94
2022-10-13T01:55:51.498Z,11.96
2022-10-13T02:00:45.426Z,11.96
2022-10-13T02:05:41.239Z,11.98
2022-10-13T02:10:36.908Z,11.98
2022-10-13T02:15:28.822Z,12.01
2022-10-13T02:20:23.576Z,12.02
2022-10-13T02:25:13.471Z,12.01
2022-10-13T02:30:05.696Z,12.03
2022-10-13T02:34:55.527Z,12.03
2022-10-13T02:39:44.993Z,12.01
2022-10-13T02:44:35.740Z,12.02
2022-10-13T02:49:27.853Z,12.01
2022-10-13T02:54:17.233Z,12.00
2022-10-13T02:59:06.939Z,12.00
2022-10-13T03:03:56.363Z,12.04
2022-10-13T03:08:48.375Z,12.04
2022-10-13T03:13:39.803Z,12.05
2022-10-13T03:18:30.895Z,12.08
2022-10-13T03:23:20.359Z,12.11
2022-10-13T03:28:14.719Z,12.08
2022-10-13T03:33:10.056Z,12.08
2022-10-13T03:37:59.904Z,12.08
2022-10-13T03:42:50.147Z,12.09
2022-10-13T03:47:43.479Z,11.89
2022-10-13T03:52:33.478Z,12.05
2022-10-13T03:57:23.194Z,12.03
2022-10-13T04:02:12.863Z,12.01
2022-10-13T04:07:04.985Z,12.02
2022-10-13T04:11:56.296Z,12.00
2022-10-13T04:16:45.808Z,12.00
2022-10-13T04:21:36.177Z,12.02
2022-10-13T04:26:29.864Z,12.03
2022-10-13T04:31:22.047Z,12.03
2022-10-13T04:36:13.290Z,12.06
2022-10-13T04:41:07.909Z,12.07
2022-10-13T04:46:02.607Z,12.08
2022-10-13T04:51:00.757Z,12.11
2022-10-13T04:55:50.166Z,12.14
2022-10-13T05:00:39.755Z,12.17
2022-10-13T05:05:31.745Z,12.19
2022-10-13T05:10:21.271Z,12.21
2022-10-13T05:15:11.356Z,12.24
2022-10-13T05:20:01.077Z,12.29
2022-10-13T05:24:53.031Z,12.32
2022-10-13T05:29:43.056Z,12.36
2022-10-13T05:34:32.771Z,12.38
2022-10-13T05:39:22.214Z,12.36
2022-10-13T05:44:14.515Z,12.35
2022-10-13T05:49:15.922Z,12.34
2022-10-13T05:54:11.688Z,12.32
2022-10-13T05:59:03.441Z,12.32
2022-10-13T06:03:59.248Z,12.29
2022-10-13T06:08:54.289Z,12.28
2022-10-13T06:13:45.939Z,12.29
2022-10-13T06:18:35.617Z,12.27
2022-10-13T06:23:29.943Z,12.28
2022-10-13T06:28:21.800Z,12.29
2022-10-13T06:33:11.288Z,12.28
2022-10-13T06:38:01.130Z,12.30
2022-10-13T06:42:58.828Z,12.32
2022-10-13T06:47:51.220Z,12.33
2022-10-13T06:52:40.772Z,12.34
2022-10-13T06:57:32.613Z,12.34
2022-10-13T07:02:28.965Z,12.36
2022-10-13T07:07:19.140Z,12.37
2022-10-13T07:12:09.212Z,12.41
2022-10-13T07:16:58.640Z,12.45
2022-10-13T07:21:50.688Z,12.46
2022-10-13T07:26:42.426Z,12.48
2022-10-13T07:31:31.890Z,12.53
2022-10-13T07:36:24.102Z,12.57
2022-10-13T07:41:17.961Z,12.58
2022-10-13T07:46:08.429Z,12.59
2022-10-13T07:50:59.254Z,12.60
2022-10-13T07:55:49.947Z,12.64
2022-10-13T08:00:44.189Z,12.63
2022-10-13T08:05:33.866Z,12.67
2022-10-13T08:10:25.350Z,12.70
2022-10-13T08:15:14.798Z,12.74
2022-10-13T08:20:07.746Z,12.79
2022-10-13T08:24:58.466Z,12.86
2022-10-13T08:29:59.291Z,12.91
2022-10-13T08:34:48.600Z,12.96
2022-10-13T08:39:40.653Z,13.02
2022-10-13T08:49:50.163Z,13.15
2022-10-13T08:54:42.216Z,13.24
2022-10-13T08:59:31.612Z,13.28
2022-10-13T09:04:31.789Z,13.29
2022-10-13T09:09:21.550Z,13.31
2022-10-13T09:14:14.380Z,13.33
2022-10-13T09:19:15.479Z,13.40
2022-10-13T09:24:10.094Z,13.44
2022-10-13T09:29:00.732Z,13.50
2022-10-13T09:34:00.119Z,13.57
2022-10-13T09:39:07.966Z,13.67
2022-10-13T09:44:11.891Z,13.76
2022-10-13T09:49:05.850Z,13.86
2022-10-13T09:53:58.482Z,13.94
2022-10-13T09:58:52.281Z,14.06
2022-10-13T10:03:42.883Z,14.08
2022-10-13T10:09:07.618Z,14.10
2022-10-13T10:13:52.728Z,14.17
2022-10-13T10:18:45.672Z,14.26
2022-10-13T10:23:42.475Z,14.35
2022-10-13T10:28:53.366Z,14.41
2022-10-13T10:33:47.050Z,14.43
2022-10-13T10:38:42.422Z,14.46
2022-10-13T10:43:43.485Z,14.47
2022-10-13T10:48:38.245Z,14.34
2022-10-13T10:53:33.133Z,14.62
2022-10-13T10:58:29.952Z,14.68
2022-10-13T11:03:27.435Z,14.66
2022-10-13T11:08:28.860Z,14.67
2022-10-13T11:13:21.057Z,14.64
2022-10-13T11:18:29.613Z,14.57
2022-10-13T11:23:34.379Z,14.52
2022-10-13T11:28:40.107Z,14.51
2022-10-13T11:33:56.426Z,14.59
2022-10-13T11:38:54.458Z,14.74
2022-10-13T11:43:50.115Z,15.01
2022-10-13T11:48:48.806Z,15.27
2022-10-13T11:53:44.899Z,15.49
2022-10-13T11:58:44.602Z,15.77
2022-10-13T12:03:34.785Z,15.79
2022-10-13T12:08:26.127Z,15.70
2022-10-13T12:13:23.682Z,15.54
2022-10-13T12:18:27.549Z,15.36
2022-10-13T12:23:19.702Z,15.21
2022-10-13T12:28:09.707Z,15.12
2022-10-13T12:33:01.879Z,14.98
2022-10-13T12:37:54.827Z,14.85
2022-10-13T12:42:44.982Z,14.78
2022-10-13T12:47:42.564Z,14.77
2022-10-13T12:52:34.173Z,14.74
2022-10-13T12:57:35.429Z,14.71
2022-10-13T13:02:28.707Z,14.65
2022-10-13T13:07:25.667Z,14.61
2022-10-13T13:12:23.970Z,14.57
2022-10-13T13:17:38.463Z,14.52
2022-10-13T13:22:29.800Z,14.53
2022-10-13T13:27:24.234Z,14.51
2022-10-13T13:32:20.082Z,14.52
2022-10-13T13:37:12.478Z,14.51
2022-10-13T13:42:01.959Z,14.49
2022-10-13T13:46:51.406Z,14.46
2022-10-13T13:51:43.419Z,14.44
2022-10-13T13:56:32.909Z,14.42
2022-10-13T14:01:23.512Z,14.37
2022-10-13T14:06:18.978Z,14.32
2022-10-13T14:11:11.238Z,14.28
2022-10-13T14:16:01.153Z,14.26
2022-10-13T14:20:52.835Z,14.25
2022-10-13T14:25:43.565Z,14.33
2022-10-13T14:30:36.008Z,14.35
2022-10-13T14:35:27.701Z,14.41
2022-10-13T14:40:17.217Z,14.34
2022-10-13T14:45:07.135Z,14.34
2022-10-13T14:50:01.271Z,14.35
2022-10-13T14:54:50.936Z,14.38
2022-10-13T14:59:42.615Z,14.42
2022-10-13T15:04:32.173Z,14.50
2022-10-13T15:09:33.523Z,14.49
2022-10-13T15:14:36.114Z,14.48
2022-10-13T15:19:26.307Z,14.44
2022-10-13T15:24:15.984Z,14.41
2022-10-13T15:29:10.362Z,14.37
2022-10-13T15:34:01.004Z,14.34
2022-10-13T15:38:50.453Z,14.27
2022-10-13T15:43:41.325Z,14.18
2022-10-13T15:48:34.011Z,14.08
2022-10-13T15:53:24.912Z,14.01
2022-10-13T15:58:14.281Z,13.93
2022-10-13T16:03:05.618Z,13.82
2022-10-13T16:07:57.627Z,13.75
2022-10-13T16:12:49.758Z,13.65
2022-10-13T16:17:39.312Z,13.57
2022-10-13T16:22:28.971Z,13.51
2022-10-13T16:27:24.199Z,13.45
2022-10-13T16:32:13.977Z,13.40
2022-10-13T16:37:03.451Z,13.36
2022-10-13T16:41:53.041Z,13.29
2022-10-13T16:46:55.505Z,13.25
2022-10-13T16:51:44.917Z,13.15
2022-10-13T16:56:34.591Z,13.17
2022-10-13T17:01:24.266Z,13.13
2022-10-13T17:06:16.801Z,13.10
2022-10-13T17:11:09.703Z,13.10
2022-10-13T17:16:01.967Z,13.07
2022-10-13T17:20:55.464Z,13.05
2022-10-13T17:25:51.431Z,12.99
2022-10-13T17:30:40.793Z,12.92
2022-10-13T17:35:30.434Z,12.86
2022-10-13T17:40:21.278Z,12.79
2022-10-13T17:45:14.539Z,12.73
2022-10-13T17:50:04.173Z,12.71
2022-10-13T17:54:55.993Z,12.64
2022-10-13T17:59:46.124Z,12.62
2022-10-13T18:04:38.240Z,12.63
2022-10-13T18:09:28.684Z,12.59
2022-10-13T18:14:18.063Z,12.55
2022-10-13T18:19:07.953Z,12.54
2022-10-13T18:24:01.002Z,12.50
2022-10-13T18:28:51.066Z,12.46
2022-10-13T18:33:43.411Z,12.40
2022-10-13T18:38:36.185Z,12.29
2022-10-13T18:43:28.193Z,12.21
2022-10-13T18:48:17.729Z,12.16
2022-10-13T18:53:07.358Z,12.12
2022-10-13T18:57:59.250Z,12.06
2022-10-13T19:02:51.913Z,12.02
2022-10-13T19:07:46.850Z,11.99
2022-10-13T19:12:42.552Z,11.91
2022-10-13T19:17:31.905Z,11.85
2022-10-13T19:22:24.231Z,11.77
2022-10-13T19:27:13.646Z,11.69
2022-10-13T19:32:03.218Z,11.64
2022-10-13T19:36:53.109Z,11.59
2022-10-13T19:41:47.083Z,11.58
2022-10-13T19:46:38.258Z,11.55
2022-10-13T19:51:27.708Z,11.50
2022-10-13T19:56:22.277Z,11.49
2022-10-13T20:01:14.351Z,11.50
2022-10-13T20:06:05.962Z,11.51
2022-10-13T20:11:01.066Z,11.52
2022-10-13T20:15:50.483Z,11.54
2022-10-13T20:20:43.573Z,11.58
2022-10-13T20:25:33.420Z,11.61
2022-10-13T20:30:23.109Z,11.61
2022-10-13T20:35:12.635Z,11.65
2022-10-13T20:40:04.649Z,11.66
2022-10-13T20:44:55.043Z,11.69
2022-10-13T20:49:44.431Z,11.73
2022-10-13T20:54:36.308Z,11.76
2022-10-13T20:59:30.466Z,11.79
2022-10-13T21:04:19.876Z,11.81
2022-10-13T21:09:12.277Z,11.82
2022-10-13T21:14:07.121Z,11.87
2022-10-13T21:19:00.198Z,11.86
2022-10-13T21:23:52.154Z,11.86
2022-10-13T21:28:42.791Z,11.87
2022-10-13T21:33:35.515Z,11.87
2022-10-13T21:38:28.203Z,11.88
2022-10-13T21:43:20.199Z,11.90
2022-10-13T21:48:15.384Z,11.90
2022-10-13T21:53:04.809Z,11.90
2022-10-13T21:58:05.234Z,11.90
2022-10-13T22:02:55.805Z,11.88
2022-10-13T22:07:51.464Z,11.86
2022-10-13T22:12:41.275Z,11.85
2022-10-13T22:17:45.207Z,11.84
2022-10-13T22:22:36.873Z,11.84
2022-10-13T22:27:26.292Z,11.84
2022-10-13T22:32:15.956Z,11.85
2022-10-13T22:37:10.126Z,11.89
2022-10-13T22:41:59.595Z,11.90
2022-10-13T22:46:53.128Z,11.93
2022-10-13T22:51:47.792Z,11.96
2022-10-13T22:56:39.962Z,11.98
2022-10-13T23:01:29.410Z,12.01
2022-10-13T23:06:21.032Z,12.02
2022-10-13T23:11:14.409Z,12.02
2022-10-13T23:16:07.688Z,12.04
2022-10-13T23:21:07.043Z,12.04
2022-10-13T23:25:56.568Z,12.05
2022-10-13T23:30:50.994Z,12.07
2022-10-13T23:35:43.500Z,12.06
2022-10-13T23:40:36.320Z,12.08
2022-10-13T23:45:27.119Z,12.10
2022-10-13T23:50:22.479Z,12.10
2022-10-13T23:55:15.029Z,12.12
